sensor_id;sensor_type;location;lat;lon;timestamp;temperature;humidity
32296;DHT22;18781;51.550;5.418;2023-02-26T00:00:28;4.00;57.00
32296;DHT22;18781;51.550;5.418;2023-02-26T00:02:54;3.90;57.00
32296;DHT22;18781;51.550;5.418;2023-02-26T00:05:20;3.90;57.20
32296;DHT22;18781;51.550;5.418;2023-02-26T00:07:45;3.90;57.20
32296;DHT22;18781;51.550;5.418;2023-02-26T00:10:12;3.90;57.30
32296;DHT22;18781;51.550;5.418;2023-02-26T00:12:39;3.90;57.30
32296;DHT22;18781;51.550;5.418;2023-02-26T00:15:05;3.90;57.30
32296;DHT22;18781;51.550;5.418;2023-02-26T00:17:48;3.90;57.50
32296;DHT22;18781;51.550;5.418;2023-02-26T00:20:15;3.90;58.50
32296;DHT22;18781;51.550;5.418;2023-02-26T00:22:42;3.90;57.90
32296;DHT22;18781;51.550;5.418;2023-02-26T00:25:08;3.90;58.00
32296;DHT22;18781;51.550;5.418;2023-02-26T00:27:34;3.90;58.20
32296;DHT22;18781;51.550;5.418;2023-02-26T00:30:01;3.90;58.20
32296;DHT22;18781;51.550;5.418;2023-02-26T00:32:28;3.90;58.20
32296;DHT22;18781;51.550;5.418;2023-02-26T00:34:54;3.90;58.30
32296;DHT22;18781;51.550;5.418;2023-02-26T00:37:26;3.90;58.50
32296;DHT22;18781;51.550;5.418;2023-02-26T00:42:40;3.90;59.50
32296;DHT22;18781;51.550;5.418;2023-02-26T00:45:06;3.90;58.70
32296;DHT22;18781;51.550;5.418;2023-02-26T00:47:42;4.00;59.40
32296;DHT22;18781;51.550;5.418;2023-02-26T00:55:31;4.00;59.20
32296;DHT22;18781;51.550;5.418;2023-02-26T00:57:57;4.00;58.80
32296;DHT22;18781;51.550;5.418;2023-02-26T01:00:22;4.00;59.00
32296;DHT22;18781;51.550;5.418;2023-02-26T01:02:48;4.00;59.10
32296;DHT22;18781;51.550;5.418;2023-02-26T01:05:16;4.10;59.20
32296;DHT22;18781;51.550;5.418;2023-02-26T01:08:09;4.10;59.20
32296;DHT22;18781;51.550;5.418;2023-02-26T01:10:37;4.10;60.00
32296;DHT22;18781;51.550;5.418;2023-02-26T01:13:03;4.10;59.10
32296;DHT22;18781;51.550;5.418;2023-02-26T01:15:29;4.10;59.00
32296;DHT22;18781;51.550;5.418;2023-02-26T01:17:56;4.20;59.00
32296;DHT22;18781;51.550;5.418;2023-02-26T01:20:31;4.20;59.00
32296;DHT22;18781;51.550;5.418;2023-02-26T01:23:03;4.20;59.10
32296;DHT22;18781;51.550;5.418;2023-02-26T01:25:49;4.20;59.00
32296;DHT22;18781;51.550;5.418;2023-02-26T01:28:15;4.20;59.60
32296;DHT22;18781;51.550;5.418;2023-02-26T01:30:41;4.20;58.80
32296;DHT22;18781;51.550;5.418;2023-02-26T01:36:16;4.20;59.40
32296;DHT22;18781;51.550;5.418;2023-02-26T01:39:02;4.20;59.00
32296;DHT22;18781;51.550;5.418;2023-02-26T01:41:42;4.20;59.40
32296;DHT22;18781;51.550;5.418;2023-02-26T01:44:25;4.20;59.00
32296;DHT22;18781;51.550;5.418;2023-02-26T01:47:05;4.20;59.40
32296;DHT22;18781;51.550;5.418;2023-02-26T01:49:36;4.20;59.10
32296;DHT22;18781;51.550;5.418;2023-02-26T01:52:04;4.10;58.90
32296;DHT22;18781;51.550;5.418;2023-02-26T01:54:37;4.10;59.20
32296;DHT22;18781;51.550;5.418;2023-02-26T01:57:14;4.10;59.30
32296;DHT22;18781;51.550;5.418;2023-02-26T01:59:49;4.10;59.50
32296;DHT22;18781;51.550;5.418;2023-02-26T02:02:18;4.10;59.30
32296;DHT22;18781;51.550;5.418;2023-02-26T02:04:44;4.10;59.10
32296;DHT22;18781;51.550;5.418;2023-02-26T02:07:11;4.10;59.60
32296;DHT22;18781;51.550;5.418;2023-02-26T02:09:37;4.10;58.80
32296;DHT22;18781;51.550;5.418;2023-02-26T02:12:25;4.10;59.00
32296;DHT22;18781;51.550;5.418;2023-02-26T02:15:13;4.10;59.50
32296;DHT22;18781;51.550;5.418;2023-02-26T02:18:11;4.10;59.20
32296;DHT22;18781;51.550;5.418;2023-02-26T02:23:16;4.00;58.80
32296;DHT22;18781;51.550;5.418;2023-02-26T02:29:15;4.00;59.00
32296;DHT22;18781;51.550;5.418;2023-02-26T02:31:53;3.90;59.20
32296;DHT22;18781;51.550;5.418;2023-02-26T02:34:26;3.90;58.90
32296;DHT22;18781;51.550;5.418;2023-02-26T02:37:05;3.90;58.90
32296;DHT22;18781;51.550;5.418;2023-02-26T02:39:41;3.90;58.90
32296;DHT22;18781;51.550;5.418;2023-02-26T02:44:50;3.80;59.00
32296;DHT22;18781;51.550;5.418;2023-02-26T02:47:19;3.80;59.00
32296;DHT22;18781;51.550;5.418;2023-02-26T02:50:04;3.80;59.00
32296;DHT22;18781;51.550;5.418;2023-02-26T02:55:18;3.80;59.20
32296;DHT22;18781;51.550;5.418;2023-02-26T02:57:52;3.80;59.20
32296;DHT22;18781;51.550;5.418;2023-02-26T03:00:20;3.80;59.00
32296;DHT22;18781;51.550;5.418;2023-02-26T03:02:52;3.80;58.80
32296;DHT22;18781;51.550;5.418;2023-02-26T03:05:19;3.80;59.00
32296;DHT22;18781;51.550;5.418;2023-02-26T03:08:04;3.80;58.90
32296;DHT22;18781;51.550;5.418;2023-02-26T03:10:31;3.70;59.40
32296;DHT22;18781;51.550;5.418;2023-02-26T03:12:57;3.70;59.00
32296;DHT22;18781;51.550;5.418;2023-02-26T03:18:38;3.70;59.60
32296;DHT22;18781;51.550;5.418;2023-02-26T03:21:20;3.70;59.70
32296;DHT22;18781;51.550;5.418;2023-02-26T03:26:56;3.60;59.30
32296;DHT22;18781;51.550;5.418;2023-02-26T03:29:37;3.60;59.50
32296;DHT22;18781;51.550;5.418;2023-02-26T03:32:13;3.60;59.40
32296;DHT22;18781;51.550;5.418;2023-02-26T03:34:53;3.50;59.40
32296;DHT22;18781;51.550;5.418;2023-02-26T03:37:33;3.50;59.40
32296;DHT22;18781;51.550;5.418;2023-02-26T03:40:00;3.50;59.50
32296;DHT22;18781;51.550;5.418;2023-02-26T03:42:54;3.50;59.80
32296;DHT22;18781;51.550;5.418;2023-02-26T03:45:19;3.50;59.20
32296;DHT22;18781;51.550;5.418;2023-02-26T03:47:49;3.40;59.70
32296;DHT22;18781;51.550;5.418;2023-02-26T03:50:37;3.40;59.00
32296;DHT22;18781;51.550;5.418;2023-02-26T03:53:08;3.40;59.70
32296;DHT22;18781;51.550;5.418;2023-02-26T03:55:44;3.40;59.30
32296;DHT22;18781;51.550;5.418;2023-02-26T03:58:11;3.30;59.50
32296;DHT22;18781;51.550;5.418;2023-02-26T04:00:38;3.30;59.40
32296;DHT22;18781;51.550;5.418;2023-02-26T04:03:19;3.30;59.30
32296;DHT22;18781;51.550;5.418;2023-02-26T04:05:48;3.30;59.70
32296;DHT22;18781;51.550;5.418;2023-02-26T04:08:15;3.30;59.50
32296;DHT22;18781;51.550;5.418;2023-02-26T04:10:44;3.30;59.40
32296;DHT22;18781;51.550;5.418;2023-02-26T04:13:12;3.20;59.40
32296;DHT22;18781;51.550;5.418;2023-02-26T04:15:38;3.20;59.40
32296;DHT22;18781;51.550;5.418;2023-02-26T04:18:04;3.20;59.40
32296;DHT22;18781;51.550;5.418;2023-02-26T04:20:29;3.20;59.40
32296;DHT22;18781;51.550;5.418;2023-02-26T04:22:55;3.20;59.40
32296;DHT22;18781;51.550;5.418;2023-02-26T04:25:21;3.20;59.40
32296;DHT22;18781;51.550;5.418;2023-02-26T04:27:46;3.20;59.80
32296;DHT22;18781;51.550;5.418;2023-02-26T04:30:12;3.20;59.40
32296;DHT22;18781;51.550;5.418;2023-02-26T04:32:38;3.20;59.40
32296;DHT22;18781;51.550;5.418;2023-02-26T04:35:03;3.10;59.30
32296;DHT22;18781;51.550;5.418;2023-02-26T04:37:29;3.10;59.20
32296;DHT22;18781;51.550;5.418;2023-02-26T04:39:54;3.10;59.10
32296;DHT22;18781;51.550;5.418;2023-02-26T04:42:20;3.10;59.00
32296;DHT22;18781;51.550;5.418;2023-02-26T04:44:46;3.10;58.90
32296;DHT22;18781;51.550;5.418;2023-02-26T04:47:11;3.10;58.80
32296;DHT22;18781;51.550;5.418;2023-02-26T04:49:37;3.00;58.80
32296;DHT22;18781;51.550;5.418;2023-02-26T04:52:03;3.00;58.70
32296;DHT22;18781;51.550;5.418;2023-02-26T04:54:29;3.00;58.80
32296;DHT22;18781;51.550;5.418;2023-02-26T04:56:55;3.00;58.80
32296;DHT22;18781;51.550;5.418;2023-02-26T04:59:21;3.00;58.80
32296;DHT22;18781;51.550;5.418;2023-02-26T05:01:46;2.90;58.70
32296;DHT22;18781;51.550;5.418;2023-02-26T05:04:12;2.90;58.70
32296;DHT22;18781;51.550;5.418;2023-02-26T05:06:38;2.90;58.60
32296;DHT22;18781;51.550;5.418;2023-02-26T05:09:03;2.90;58.70
32296;DHT22;18781;51.550;5.418;2023-02-26T05:11:29;2.80;58.60
32296;DHT22;18781;51.550;5.418;2023-02-26T05:13:55;2.80;58.60
32296;DHT22;18781;51.550;5.418;2023-02-26T05:16:21;2.80;58.60
32296;DHT22;18781;51.550;5.418;2023-02-26T05:18:46;2.80;58.50
32296;DHT22;18781;51.550;5.418;2023-02-26T05:21:12;2.80;58.60
32296;DHT22;18781;51.550;5.418;2023-02-26T05:23:37;2.80;58.60
32296;DHT22;18781;51.550;5.418;2023-02-26T05:26:03;2.70;58.60
32296;DHT22;18781;51.550;5.418;2023-02-26T05:28:28;2.70;58.60
32296;DHT22;18781;51.550;5.418;2023-02-26T05:30:56;2.70;58.70
32296;DHT22;18781;51.550;5.418;2023-02-26T05:33:22;2.70;58.90
32296;DHT22;18781;51.550;5.418;2023-02-26T05:35:48;2.70;58.80
32296;DHT22;18781;51.550;5.418;2023-02-26T05:38:14;2.70;58.70
32296;DHT22;18781;51.550;5.418;2023-02-26T05:40:39;2.70;58.60
32296;DHT22;18781;51.550;5.418;2023-02-26T05:43:05;2.70;58.60
32296;DHT22;18781;51.550;5.418;2023-02-26T05:45:31;2.70;58.50
32296;DHT22;18781;51.550;5.418;2023-02-26T05:47:57;2.70;58.50
32296;DHT22;18781;51.550;5.418;2023-02-26T05:50:22;2.70;58.60
32296;DHT22;18781;51.550;5.418;2023-02-26T05:52:48;2.70;58.50
32296;DHT22;18781;51.550;5.418;2023-02-26T05:55:13;2.70;58.50
32296;DHT22;18781;51.550;5.418;2023-02-26T05:57:39;2.60;58.40
32296;DHT22;18781;51.550;5.418;2023-02-26T06:00:06;2.60;58.40
32296;DHT22;18781;51.550;5.418;2023-02-26T06:02:32;2.60;58.40
32296;DHT22;18781;51.550;5.418;2023-02-26T06:04:58;2.60;58.30
32296;DHT22;18781;51.550;5.418;2023-02-26T06:07:24;2.60;58.40
32296;DHT22;18781;51.550;5.418;2023-02-26T06:09:49;2.60;58.40
32296;DHT22;18781;51.550;5.418;2023-02-26T06:12:15;2.60;58.40
32296;DHT22;18781;51.550;5.418;2023-02-26T06:14:41;2.60;58.30
32296;DHT22;18781;51.550;5.418;2023-02-26T06:17:06;2.60;58.20
32296;DHT22;18781;51.550;5.418;2023-02-26T06:19:32;2.60;58.10
32296;DHT22;18781;51.550;5.418;2023-02-26T06:21:58;2.60;58.20
32296;DHT22;18781;51.550;5.418;2023-02-26T06:24:24;2.60;58.10
32296;DHT22;18781;51.550;5.418;2023-02-26T06:26:50;2.60;58.10
32296;DHT22;18781;51.550;5.418;2023-02-26T06:29:16;2.60;58.00
32296;DHT22;18781;51.550;5.418;2023-02-26T06:31:43;2.50;58.00
32296;DHT22;18781;51.550;5.418;2023-02-26T06:34:09;2.50;58.00
32296;DHT22;18781;51.550;5.418;2023-02-26T06:36:35;2.50;57.90
32296;DHT22;18781;51.550;5.418;2023-02-26T06:39:00;2.50;58.00
32296;DHT22;18781;51.550;5.418;2023-02-26T06:41:26;2.50;58.00
32296;DHT22;18781;51.550;5.418;2023-02-26T06:43:51;2.50;58.00
32296;DHT22;18781;51.550;5.418;2023-02-26T06:46:17;2.50;57.90
32296;DHT22;18781;51.550;5.418;2023-02-26T06:48:42;2.50;57.90
32296;DHT22;18781;51.550;5.418;2023-02-26T06:51:08;2.50;57.90
32296;DHT22;18781;51.550;5.418;2023-02-26T06:53:34;2.50;57.80
32296;DHT22;18781;51.550;5.418;2023-02-26T06:55:59;2.50;57.90
32296;DHT22;18781;51.550;5.418;2023-02-26T06:58:25;2.50;58.00
32296;DHT22;18781;51.550;5.418;2023-02-26T07:00:50;2.50;58.00
32296;DHT22;18781;51.550;5.418;2023-02-26T07:03:17;2.50;58.00
32296;DHT22;18781;51.550;5.418;2023-02-26T07:05:44;2.50;58.10
32296;DHT22;18781;51.550;5.418;2023-02-26T07:08:10;2.50;58.10
32296;DHT22;18781;51.550;5.418;2023-02-26T07:10:36;2.50;58.10
32296;DHT22;18781;51.550;5.418;2023-02-26T07:13:02;2.50;58.10
32296;DHT22;18781;51.550;5.418;2023-02-26T07:15:28;2.50;58.10
32296;DHT22;18781;51.550;5.418;2023-02-26T07:17:54;2.60;58.10
32296;DHT22;18781;51.550;5.418;2023-02-26T07:20:19;2.60;58.10
32296;DHT22;18781;51.550;5.418;2023-02-26T07:22:45;2.60;58.00
32296;DHT22;18781;51.550;5.418;2023-02-26T07:25:11;2.60;58.00
32296;DHT22;18781;51.550;5.418;2023-02-26T07:27:37;2.60;58.00
32296;DHT22;18781;51.550;5.418;2023-02-26T07:30:04;2.60;58.00
32296;DHT22;18781;51.550;5.418;2023-02-26T07:32:30;2.60;58.00
32296;DHT22;18781;51.550;5.418;2023-02-26T07:34:56;2.70;58.10
32296;DHT22;18781;51.550;5.418;2023-02-26T07:37:22;2.70;58.10
32296;DHT22;18781;51.550;5.418;2023-02-26T07:39:47;2.70;58.20
32296;DHT22;18781;51.550;5.418;2023-02-26T07:42:13;2.70;58.20
32296;DHT22;18781;51.550;5.418;2023-02-26T07:44:38;2.80;58.20
32296;DHT22;18781;51.550;5.418;2023-02-26T07:47:04;2.80;58.30
32296;DHT22;18781;51.550;5.418;2023-02-26T07:49:30;2.80;58.30
32296;DHT22;18781;51.550;5.418;2023-02-26T07:51:57;2.80;58.30
32296;DHT22;18781;51.550;5.418;2023-02-26T07:54:22;2.90;58.30
32296;DHT22;18781;51.550;5.418;2023-02-26T07:56:48;2.90;58.30
32296;DHT22;18781;51.550;5.418;2023-02-26T07:59:13;2.90;58.20
32296;DHT22;18781;51.550;5.418;2023-02-26T08:01:39;3.00;58.30
32296;DHT22;18781;51.550;5.418;2023-02-26T08:04:04;3.00;58.40
32296;DHT22;18781;51.550;5.418;2023-02-26T08:06:30;3.10;58.30
32296;DHT22;18781;51.550;5.418;2023-02-26T08:08:56;3.10;58.40
32296;DHT22;18781;51.550;5.418;2023-02-26T08:11:22;3.20;58.40
32296;DHT22;18781;51.550;5.418;2023-02-26T08:13:47;3.20;58.30
32296;DHT22;18781;51.550;5.418;2023-02-26T08:16:13;3.30;58.40
32296;DHT22;18781;51.550;5.418;2023-02-26T08:18:39;3.30;58.30
32296;DHT22;18781;51.550;5.418;2023-02-26T08:21:04;3.40;58.30
32296;DHT22;18781;51.550;5.418;2023-02-26T08:23:30;3.40;58.30
32296;DHT22;18781;51.550;5.418;2023-02-26T08:26:05;3.50;58.30
32296;DHT22;18781;51.550;5.418;2023-02-26T08:28:31;3.50;58.20
32296;DHT22;18781;51.550;5.418;2023-02-26T08:30:58;3.60;58.30
32296;DHT22;18781;51.550;5.418;2023-02-26T08:33:24;3.70;58.10
32296;DHT22;18781;51.550;5.418;2023-02-26T08:35:50;3.70;58.10
32296;DHT22;18781;51.550;5.418;2023-02-26T08:38:16;3.80;58.20
32296;DHT22;18781;51.550;5.418;2023-02-26T08:40:42;3.80;58.00
32296;DHT22;18781;51.550;5.418;2023-02-26T08:43:07;3.90;58.00
32296;DHT22;18781;51.550;5.418;2023-02-26T08:45:33;3.90;57.80
32296;DHT22;18781;51.550;5.418;2023-02-26T08:47:59;4.00;58.10
32296;DHT22;18781;51.550;5.418;2023-02-26T08:50:25;4.10;57.90
32296;DHT22;18781;51.550;5.418;2023-02-26T08:52:51;4.10;57.20
32296;DHT22;18781;51.550;5.418;2023-02-26T08:55:17;4.20;57.00
32296;DHT22;18781;51.550;5.418;2023-02-26T08:57:42;4.30;56.80
32296;DHT22;18781;51.550;5.418;2023-02-26T09:00:10;4.30;57.30
32296;DHT22;18781;51.550;5.418;2023-02-26T09:02:36;4.30;57.40
32296;DHT22;18781;51.550;5.418;2023-02-26T09:05:03;4.40;57.30
32296;DHT22;18781;51.550;5.418;2023-02-26T09:07:29;4.50;56.90
32296;DHT22;18781;51.550;5.418;2023-02-26T09:09:54;4.50;57.00
32296;DHT22;18781;51.550;5.418;2023-02-26T09:12:20;4.60;56.70
32296;DHT22;18781;51.550;5.418;2023-02-26T09:14:46;4.60;56.80
32296;DHT22;18781;51.550;5.418;2023-02-26T09:17:11;4.70;56.70
32296;DHT22;18781;51.550;5.418;2023-02-26T09:19:37;4.80;56.60
32296;DHT22;18781;51.550;5.418;2023-02-26T09:22:03;4.80;56.40
32296;DHT22;18781;51.550;5.418;2023-02-26T09:24:29;4.90;56.30
32296;DHT22;18781;51.550;5.418;2023-02-26T09:26:54;4.90;56.60
32296;DHT22;18781;51.550;5.418;2023-02-26T09:29:20;5.00;55.30
32296;DHT22;18781;51.550;5.418;2023-02-26T09:31:45;5.10;54.30
32296;DHT22;18781;51.550;5.418;2023-02-26T09:34:11;5.20;54.20
32296;DHT22;18781;51.550;5.418;2023-02-26T09:36:38;5.20;54.00
32296;DHT22;18781;51.550;5.418;2023-02-26T09:39:04;5.30;53.70
32296;DHT22;18781;51.550;5.418;2023-02-26T09:41:40;5.30;53.40
32296;DHT22;18781;51.550;5.418;2023-02-26T09:44:31;5.30;53.70
32296;DHT22;18781;51.550;5.418;2023-02-26T09:47:05;5.40;53.20
32296;DHT22;18781;51.550;5.418;2023-02-26T09:49:44;5.40;53.40
32296;DHT22;18781;51.550;5.418;2023-02-26T09:53:16;5.50;52.50
32296;DHT22;18781;51.550;5.418;2023-02-26T09:55:26;5.50;52.80
32296;DHT22;18781;51.550;5.418;2023-02-26T09:57:59;5.60;52.80
32296;DHT22;18781;51.550;5.418;2023-02-26T10:00:29;5.60;52.60
32296;DHT22;18781;51.550;5.418;2023-02-26T10:05:39;5.70;53.00
32296;DHT22;18781;51.550;5.418;2023-02-26T10:08:14;5.80;51.90
32296;DHT22;18781;51.550;5.418;2023-02-26T10:11:13;5.80;51.90
32296;DHT22;18781;51.550;5.418;2023-02-26T10:13:49;5.80;50.80
32296;DHT22;18781;51.550;5.418;2023-02-26T10:16:26;5.90;50.00
32296;DHT22;18781;51.550;5.418;2023-02-26T10:19:13;5.90;49.90
32296;DHT22;18781;51.550;5.418;2023-02-26T10:24:17;5.90;50.40
32296;DHT22;18781;51.550;5.418;2023-02-26T10:26:54;5.90;50.00
32296;DHT22;18781;51.550;5.418;2023-02-26T10:29:46;5.90;50.90
32296;DHT22;18781;51.550;5.418;2023-02-26T10:35:08;6.00;51.70
32296;DHT22;18781;51.550;5.418;2023-02-26T10:37:45;6.10;48.90
32296;DHT22;18781;51.550;5.418;2023-02-26T10:43:03;6.20;48.50
32296;DHT22;18781;51.550;5.418;2023-02-26T10:45:34;6.30;49.00
32296;DHT22;18781;51.550;5.418;2023-02-26T10:50:55;6.30;48.60
32296;DHT22;18781;51.550;5.418;2023-02-26T10:53:22;6.40;47.50
32296;DHT22;18781;51.550;5.418;2023-02-26T10:56:19;6.40;48.30
32296;DHT22;18781;51.550;5.418;2023-02-26T10:58:46;6.50;47.90
32296;DHT22;18781;51.550;5.418;2023-02-26T11:01:19;6.50;45.80
32296;DHT22;18781;51.550;5.418;2023-02-26T11:03:53;6.50;47.10
32296;DHT22;18781;51.550;5.418;2023-02-26T11:06:34;6.50;47.10
32296;DHT22;18781;51.550;5.418;2023-02-26T11:09:04;6.60;47.60
32296;DHT22;18781;51.550;5.418;2023-02-26T11:11:46;6.60;46.60
32296;DHT22;18781;51.550;5.418;2023-02-26T11:14:13;6.70;46.40
32296;DHT22;18781;51.550;5.418;2023-02-26T11:17:03;6.70;45.20
32296;DHT22;18781;51.550;5.418;2023-02-26T11:19:32;6.70;45.10
32296;DHT22;18781;51.550;5.418;2023-02-26T11:22:00;6.80;44.40
32296;DHT22;18781;51.550;5.418;2023-02-26T11:24:31;6.80;44.20
32296;DHT22;18781;51.550;5.418;2023-02-26T11:26:59;6.80;44.70
32296;DHT22;18781;51.550;5.418;2023-02-26T11:29:36;6.80;45.00
32296;DHT22;18781;51.550;5.418;2023-02-26T11:32:03;6.80;44.90
32296;DHT22;18781;51.550;5.418;2023-02-26T11:34:30;6.80;44.90
32296;DHT22;18781;51.550;5.418;2023-02-26T11:36:58;6.90;43.20
32296;DHT22;18781;51.550;5.418;2023-02-26T11:39:27;6.90;42.60
32296;DHT22;18781;51.550;5.418;2023-02-26T11:41:57;6.90;42.70
32296;DHT22;18781;51.550;5.418;2023-02-26T11:46:57;7.00;44.10
32296;DHT22;18781;51.550;5.418;2023-02-26T11:49:26;7.00;43.60
32296;DHT22;18781;51.550;5.418;2023-02-26T11:54:56;7.20;43.60
32296;DHT22;18781;51.550;5.418;2023-02-26T11:57:26;7.20;42.30
32296;DHT22;18781;51.550;5.418;2023-02-26T11:59:54;7.20;42.30
32296;DHT22;18781;51.550;5.418;2023-02-26T12:02:23;7.20;42.10
32296;DHT22;18781;51.550;5.418;2023-02-26T12:04:52;7.20;42.10
32296;DHT22;18781;51.550;5.418;2023-02-26T12:07:19;7.20;42.30
32296;DHT22;18781;51.550;5.418;2023-02-26T12:09:46;7.30;42.20
32296;DHT22;18781;51.550;5.418;2023-02-26T12:12:41;7.30;42.00
32296;DHT22;18781;51.550;5.418;2023-02-26T12:15:20;7.30;41.90
32296;DHT22;18781;51.550;5.418;2023-02-26T12:21:01;7.30;41.90
32296;DHT22;18781;51.550;5.418;2023-02-26T12:27:05;7.40;42.30
32296;DHT22;18781;51.550;5.418;2023-02-26T12:32:49;7.40;42.10
32296;DHT22;18781;51.550;5.418;2023-02-26T12:38:18;7.50;41.80
32296;DHT22;18781;51.550;5.418;2023-02-26T12:41:03;7.50;42.30
32296;DHT22;18781;51.550;5.418;2023-02-26T12:43:49;7.50;43.30
32296;DHT22;18781;51.550;5.418;2023-02-26T12:53:18;7.70;43.30
32296;DHT22;18781;51.550;5.418;2023-02-26T13:12:00;8.10;41.60
32296;DHT22;18781;51.550;5.418;2023-02-26T13:15:04;8.10;41.20
32296;DHT22;18781;51.550;5.418;2023-02-26T13:20:23;8.10;41.90
32296;DHT22;18781;51.550;5.418;2023-02-26T13:23:02;8.10;41.30
32296;DHT22;18781;51.550;5.418;2023-02-26T13:25:42;8.20;41.50
32296;DHT22;18781;51.550;5.418;2023-02-26T13:31:02;8.20;40.60
32296;DHT22;18781;51.550;5.418;2023-02-26T13:33:31;8.20;41.10
32296;DHT22;18781;51.550;5.418;2023-02-26T13:35:59;8.20;40.80
32296;DHT22;18781;51.550;5.418;2023-02-26T13:41:15;8.30;39.90
32296;DHT22;18781;51.550;5.418;2023-02-26T13:54:06;8.40;41.20
32296;DHT22;18781;51.550;5.418;2023-02-26T13:59:03;8.40;40.90
32296;DHT22;18781;51.550;5.418;2023-02-26T14:01:34;8.40;41.30
32296;DHT22;18781;51.550;5.418;2023-02-26T14:04:28;8.40;41.10
32296;DHT22;18781;51.550;5.418;2023-02-26T14:06:59;8.40;41.70
32296;DHT22;18781;51.550;5.418;2023-02-26T14:09:34;8.50;42.00
32296;DHT22;18781;51.550;5.418;2023-02-26T14:12:02;8.50;42.00
32296;DHT22;18781;51.550;5.418;2023-02-26T14:19:30;8.60;41.20
32296;DHT22;18781;51.550;5.418;2023-02-26T14:25:14;8.60;41.50
32296;DHT22;18781;51.550;5.418;2023-02-26T14:27:46;8.60;41.50
32296;DHT22;18781;51.550;5.418;2023-02-26T14:30:16;8.70;41.00
32296;DHT22;18781;51.550;5.418;2023-02-26T14:35:23;8.70;41.30
32296;DHT22;18781;51.550;5.418;2023-02-26T14:38:02;8.70;40.90
32296;DHT22;18781;51.550;5.418;2023-02-26T14:40:37;8.70;40.80
32296;DHT22;18781;51.550;5.418;2023-02-26T14:43:04;8.70;40.20
32296;DHT22;18781;51.550;5.418;2023-02-26T14:45:36;8.80;40.30
32296;DHT22;18781;51.550;5.418;2023-02-26T14:48:06;8.80;39.70
32296;DHT22;18781;51.550;5.418;2023-02-26T15:02:08;8.80;40.00
32296;DHT22;18781;51.550;5.418;2023-02-26T15:04:47;8.90;40.10
32296;DHT22;18781;51.550;5.418;2023-02-26T15:07:44;8.80;40.70
32296;DHT22;18781;51.550;5.418;2023-02-26T15:15:54;8.90;40.70
32296;DHT22;18781;51.550;5.418;2023-02-26T15:23:52;8.90;40.70
32296;DHT22;18781;51.550;5.418;2023-02-26T15:26:33;8.90;39.60
32296;DHT22;18781;51.550;5.418;2023-02-26T15:29:02;9.00;39.60
32296;DHT22;18781;51.550;5.418;2023-02-26T15:31:41;9.00;39.70
32296;DHT22;18781;51.550;5.418;2023-02-26T15:34:11;9.00;40.00
32296;DHT22;18781;51.550;5.418;2023-02-26T15:36:40;8.90;39.60
32296;DHT22;18781;51.550;5.418;2023-02-26T15:39:07;9.00;39.70
32296;DHT22;18781;51.550;5.418;2023-02-26T15:41:33;9.00;40.30
32296;DHT22;18781;51.550;5.418;2023-02-26T15:44:02;8.90;40.10
32296;DHT22;18781;51.550;5.418;2023-02-26T15:46:32;8.90;39.70
32296;DHT22;18781;51.550;5.418;2023-02-26T15:49:11;8.90;39.80
32296;DHT22;18781;51.550;5.418;2023-02-26T15:51:38;8.90;39.90
32296;DHT22;18781;51.550;5.418;2023-02-26T15:54:05;8.90;39.30
32296;DHT22;18781;51.550;5.418;2023-02-26T15:56:34;8.90;39.50
32296;DHT22;18781;51.550;5.418;2023-02-26T15:59:05;8.90;40.00
32296;DHT22;18781;51.550;5.418;2023-02-26T16:01:32;8.80;39.90
32296;DHT22;18781;51.550;5.418;2023-02-26T16:04:01;8.80;40.00
32296;DHT22;18781;51.550;5.418;2023-02-26T16:06:30;8.80;39.50
32296;DHT22;18781;51.550;5.418;2023-02-26T16:08:56;8.80;39.50
32296;DHT22;18781;51.550;5.418;2023-02-26T16:11:23;8.80;39.80
32296;DHT22;18781;51.550;5.418;2023-02-26T16:13:52;8.80;40.10
32296;DHT22;18781;51.550;5.418;2023-02-26T16:16:28;8.80;40.40
32296;DHT22;18781;51.550;5.418;2023-02-26T16:18:58;8.80;40.10
32296;DHT22;18781;51.550;5.418;2023-02-26T16:21:34;8.80;40.10
32296;DHT22;18781;51.550;5.418;2023-02-26T16:24:01;8.70;40.30
32296;DHT22;18781;51.550;5.418;2023-02-26T16:26:32;8.70;40.00
32296;DHT22;18781;51.550;5.418;2023-02-26T16:29:05;8.70;39.80
32296;DHT22;18781;51.550;5.418;2023-02-26T16:31:32;8.70;40.20
32296;DHT22;18781;51.550;5.418;2023-02-26T16:34:27;8.70;40.50
32296;DHT22;18781;51.550;5.418;2023-02-26T16:36:53;8.60;41.10
32296;DHT22;18781;51.550;5.418;2023-02-26T16:39:23;8.60;41.00
32296;DHT22;18781;51.550;5.418;2023-02-26T16:42:13;8.60;40.80
32296;DHT22;18781;51.550;5.418;2023-02-26T16:44:57;8.60;41.20
32296;DHT22;18781;51.550;5.418;2023-02-26T16:47:28;8.60;40.90
32296;DHT22;18781;51.550;5.418;2023-02-26T16:49:54;8.50;40.80
32296;DHT22;18781;51.550;5.418;2023-02-26T16:52:22;8.50;41.00
32296;DHT22;18781;51.550;5.418;2023-02-26T16:55:02;8.50;41.00
32296;DHT22;18781;51.550;5.418;2023-02-26T16:57:35;8.50;41.30
32296;DHT22;18781;51.550;5.418;2023-02-26T17:00:10;8.40;41.50
32296;DHT22;18781;51.550;5.418;2023-02-26T17:02:38;8.40;41.60
32296;DHT22;18781;51.550;5.418;2023-02-26T17:05:22;8.30;41.40
32296;DHT22;18781;51.550;5.418;2023-02-26T17:07:55;8.30;41.50
32296;DHT22;18781;51.550;5.418;2023-02-26T17:10:32;8.30;41.50
32296;DHT22;18781;51.550;5.418;2023-02-26T17:13:18;8.30;41.80
32296;DHT22;18781;51.550;5.418;2023-02-26T17:15:45;8.20;42.10
32296;DHT22;18781;51.550;5.418;2023-02-26T17:18:12;8.20;42.00
32296;DHT22;18781;51.550;5.418;2023-02-26T17:20:38;8.10;42.20
32296;DHT22;18781;51.550;5.418;2023-02-26T17:23:05;8.10;42.30
32296;DHT22;18781;51.550;5.418;2023-02-26T17:25:44;8.00;42.40
32296;DHT22;18781;51.550;5.418;2023-02-26T17:28:21;8.00;42.40
32296;DHT22;18781;51.550;5.418;2023-02-26T17:30:47;8.00;42.40
32296;DHT22;18781;51.550;5.418;2023-02-26T17:33:13;7.90;42.50
32296;DHT22;18781;51.550;5.418;2023-02-26T17:35:39;7.90;42.60
32296;DHT22;18781;51.550;5.418;2023-02-26T17:38:05;7.90;42.70
32296;DHT22;18781;51.550;5.418;2023-02-26T17:40:35;7.80;42.80
32296;DHT22;18781;51.550;5.418;2023-02-26T17:43:04;7.80;42.70
32296;DHT22;18781;51.550;5.418;2023-02-26T17:45:33;7.80;42.90
32296;DHT22;18781;51.550;5.418;2023-02-26T17:47:59;7.80;43.50
32296;DHT22;18781;51.550;5.418;2023-02-26T17:53:09;7.70;43.20
32296;DHT22;18781;51.550;5.418;2023-02-26T17:55:36;7.60;43.10
32296;DHT22;18781;51.550;5.418;2023-02-26T17:58:05;7.60;43.20
32296;DHT22;18781;51.550;5.418;2023-02-26T18:00:31;7.50;43.40
32296;DHT22;18781;51.550;5.418;2023-02-26T18:02:58;7.50;43.50
32296;DHT22;18781;51.550;5.418;2023-02-26T18:05:24;7.40;43.60
32296;DHT22;18781;51.550;5.418;2023-02-26T18:07:52;7.40;43.70
32296;DHT22;18781;51.550;5.418;2023-02-26T18:10:22;7.40;43.80
32296;DHT22;18781;51.550;5.418;2023-02-26T18:12:48;7.30;43.60
32296;DHT22;18781;51.550;5.418;2023-02-26T18:15:14;7.30;43.80
32296;DHT22;18781;51.550;5.418;2023-02-26T18:17:40;7.30;43.80
32296;DHT22;18781;51.550;5.418;2023-02-26T18:20:07;7.20;43.80
32296;DHT22;18781;51.550;5.418;2023-02-26T18:22:34;7.20;43.90
32296;DHT22;18781;51.550;5.418;2023-02-26T18:25:00;7.10;44.20